createdAt,value
2023-05-09T00:02:28.626Z,67.94
2023-05-09T00:04:57.503Z,68.26
2023-05-09T00:07:25.633Z,67.84
2023-05-09T00:09:53.709Z,67.59
2023-05-09T00:12:23.376Z,68.15
2023-05-09T00:14:54.284Z,68.10
2023-05-09T00:17:22.665Z,68.38
2023-05-09T00:19:51.377Z,68.53
2023-05-09T00:22:21.457Z,68.57
2023-05-09T00:24:49.688Z,68.94
2023-05-09T00:27:17.896Z,68.74
2023-05-09T00:29:47.360Z,68.96
2023-05-09T00:32:15.537Z,69.09
2023-05-09T00:34:43.740Z,69.47
2023-05-09T00:37:11.858Z,68.11
2023-05-09T00:39:39.981Z,67.51
2023-05-09T00:42:08.171Z,68.14
2023-05-09T00:44:36.307Z,68.26
2023-05-09T00:47:06.207Z,67.99
2023-05-09T00:49:34.684Z,68.42
2023-05-09T00:52:04.878Z,68.14
2023-05-09T00:54:33.140Z,68.23
2023-05-09T00:57:01.396Z,68.74
2023-05-09T00:59:29.671Z,69.05
2023-05-09T01:01:57.778Z,68.54
2023-05-09T01:04:27.974Z,68.10
2023-05-09T01:07:07.259Z,67.58
2023-05-09T01:09:47.522Z,68.22
2023-05-09T01:12:27.797Z,68.66
2023-05-09T01:15:06.883Z,68.52
2023-05-09T01:17:48.381Z,68.17
2023-05-09T01:20:31.296Z,68.20
2023-05-09T01:23:39.737Z,67.20
2023-05-09T01:26:20.134Z,67.31
2023-05-09T01:29:32.733Z,67.51
2023-05-09T01:32:04.895Z,67.93
2023-05-09T01:34:36.024Z,68.07
2023-05-09T01:37:08.019Z,68.08
2023-05-09T01:39:41.168Z,67.68
2023-05-09T01:42:12.834Z,68.79
2023-05-09T01:44:46.567Z,68.30
2023-05-09T01:47:17.739Z,68.52
2023-05-09T01:49:48.565Z,68.59
2023-05-09T01:52:19.873Z,68.08
2023-05-09T01:54:51.073Z,68.22
2023-05-09T01:57:22.965Z,67.39
2023-05-09T01:59:53.397Z,66.57
2023-05-09T02:02:22.476Z,66.93
2023-05-09T02:04:51.748Z,67.04
2023-05-09T02:07:21.456Z,67.26
2023-05-09T02:09:53.902Z,66.21
2023-05-09T02:12:22.172Z,66.07
2023-05-09T02:14:50.532Z,65.81
2023-05-09T02:17:21.544Z,65.75
2023-05-09T02:19:49.743Z,66.32
2023-05-09T02:22:18.127Z,66.23
2023-05-09T02:24:46.368Z,66.09
2023-05-09T02:27:16.542Z,66.25
2023-05-09T02:29:49.135Z,66.24
2023-05-09T02:32:23.461Z,66.10
2023-05-09T02:34:54.081Z,66.44
2023-05-09T02:37:23.213Z,66.26
2023-05-09T02:39:51.788Z,66.50
2023-05-09T02:42:25.224Z,66.27
2023-05-09T02:44:53.717Z,66.33
2023-05-09T02:47:23.652Z,66.87
2023-05-09T02:49:51.797Z,67.03
2023-05-09T02:52:20.030Z,66.56
2023-05-09T02:54:48.589Z,66.52
2023-05-09T02:57:16.830Z,66.53
2023-05-09T02:59:44.957Z,66.30
2023-05-09T03:02:13.095Z,65.56
2023-05-09T03:04:42.976Z,65.88
2023-05-09T03:07:11.096Z,65.34
2023-05-09T03:09:41.092Z,65.86
2023-05-09T03:12:09.840Z,66.09
2023-05-09T03:14:38.007Z,65.70
2023-05-09T03:17:06.203Z,66.02
2023-05-09T03:19:34.298Z,66.09
2023-05-09T03:22:03.794Z,65.33
2023-05-09T03:24:31.881Z,65.65
2023-05-09T03:27:00.016Z,65.06
2023-05-09T03:29:28.130Z,64.74
2023-05-09T03:31:56.252Z,65.41
2023-05-09T03:34:24.415Z,65.16
2023-05-09T03:36:52.557Z,65.39
2023-05-09T03:39:22.020Z,65.89
2023-05-09T03:41:50.176Z,65.65
2023-05-09T03:44:18.278Z,65.41
2023-05-09T03:46:46.446Z,65.75
2023-05-09T03:49:14.583Z,65.20
2023-05-09T03:51:42.795Z,65.60
2023-05-09T03:54:11.071Z,64.98
2023-05-09T03:56:40.566Z,65.37
2023-05-09T03:59:08.728Z,65.13
2023-05-09T04:01:38.842Z,64.84
2023-05-09T04:04:08.350Z,64.25
2023-05-09T04:06:37.439Z,64.20
2023-05-09T04:09:05.593Z,64.63
2023-05-09T04:11:33.697Z,64.76
2023-05-09T04:14:06.977Z,63.96
2023-05-09T04:16:35.440Z,64.38
2023-05-09T04:19:03.634Z,63.90
2023-05-09T04:21:32.085Z,64.30
2023-05-09T04:24:00.210Z,63.42
2023-05-09T04:26:28.286Z,63.65
2023-05-09T04:28:56.697Z,63.78
2023-05-09T04:31:27.019Z,62.88
2023-05-09T04:33:55.444Z,63.47
2023-05-09T04:36:23.871Z,62.56
2023-05-09T04:38:52.103Z,63.02
2023-05-09T04:41:21.318Z,62.67
2023-05-09T04:43:49.512Z,61.71
2023-05-09T04:46:17.626Z,61.46
2023-05-09T04:48:47.217Z,61.15
2023-05-09T04:51:15.275Z,60.70
2023-05-09T04:53:43.410Z,59.57
2023-05-09T04:56:11.545Z,56.20
2023-05-09T04:58:39.613Z,49.62
2023-05-09T05:01:07.870Z,44.45
2023-05-09T05:03:36.219Z,41.08
2023-05-09T05:06:06.579Z,39.48
2023-05-09T05:08:34.947Z,37.67
2023-05-09T05:11:03.050Z,37.03
2023-05-09T05:13:31.185Z,38.04
2023-05-09T05:15:59.529Z,38.92
2023-05-09T05:18:27.689Z,40.54
2023-05-09T05:20:55.827Z,42.94
2023-05-09T05:23:25.288Z,44.75
2023-05-09T05:25:53.436Z,46.07
2023-05-09T05:28:21.596Z,46.53
2023-05-09T05:30:49.736Z,47.38
2023-05-09T05:33:17.801Z,47.67
2023-05-09T05:35:45.921Z,47.79
2023-05-09T05:38:14.037Z,47.86
2023-05-09T05:40:43.517Z,48.26
2023-05-09T05:43:11.696Z,47.52
2023-05-09T05:45:39.881Z,47.56
2023-05-09T05:48:08.118Z,48.17
2023-05-09T05:50:37.271Z,48.13
2023-05-09T05:53:06.488Z,48.03
2023-05-09T05:55:34.622Z,47.24
2023-05-09T05:58:04.129Z,48.37
2023-05-09T06:00:32.325Z,47.51
2023-05-09T06:03:00.560Z,48.47
2023-05-09T06:05:28.811Z,47.65
2023-05-09T06:07:56.886Z,47.53
2023-05-09T06:10:25.049Z,47.89
2023-05-09T06:12:53.210Z,47.91
2023-05-09T06:15:22.903Z,47.44
2023-05-09T06:17:51.388Z,47.41
2023-05-09T06:20:19.711Z,47.13
2023-05-09T06:22:47.787Z,47.24
2023-05-09T06:25:16.281Z,47.32
2023-05-09T06:27:45.209Z,46.66
2023-05-09T06:30:25.645Z,47.53
2023-05-09T06:32:57.956Z,46.67
2023-05-09T06:35:26.334Z,46.67
2023-05-09T06:37:54.454Z,46.94
2023-05-09T06:40:22.922Z,46.72
2023-05-09T06:42:51.013Z,46.97
2023-05-09T06:45:19.597Z,46.36
2023-05-09T06:47:47.953Z,46.91
2023-05-09T06:50:17.428Z,46.64
2023-05-09T06:52:45.658Z,47.01
2023-05-09T06:55:14.265Z,46.55
2023-05-09T06:57:42.649Z,46.16
2023-05-09T07:00:12.437Z,46.40
2023-05-09T07:02:42.186Z,46.84
2023-05-09T07:05:11.424Z,46.07
2023-05-09T07:07:40.939Z,47.05
2023-05-09T07:10:12.362Z,45.96
2023-05-09T07:12:41.648Z,46.33
2023-05-09T07:15:11.500Z,46.82
2023-05-09T07:17:39.771Z,46.62
2023-05-09T07:20:09.567Z,46.19
2023-05-09T07:22:38.025Z,46.33
2023-05-09T07:25:10.320Z,46.77
2023-05-09T07:27:38.619Z,46.72
2023-05-09T07:30:09.212Z,46.50
2023-05-09T07:32:37.461Z,46.44
2023-05-09T07:35:06.433Z,46.97
2023-05-09T07:37:34.783Z,46.58
2023-05-09T07:40:03.340Z,46.09
2023-05-09T07:42:33.576Z,46.39
2023-05-09T07:45:01.723Z,46.21
2023-05-09T07:47:29.854Z,46.11
2023-05-09T07:49:58.079Z,46.12
2023-05-09T07:52:26.314Z,46.40
2023-05-09T07:54:54.584Z,46.71
2023-05-09T07:57:23.229Z,46.50
2023-05-09T07:59:52.715Z,46.42
2023-05-09T08:02:20.988Z,46.21
2023-05-09T08:04:49.314Z,45.95
2023-05-09T08:07:17.544Z,45.83
2023-05-09T08:09:45.696Z,45.81
2023-05-09T08:12:13.908Z,46.37
2023-05-09T08:14:42.103Z,46.04
2023-05-09T08:17:11.626Z,45.59
2023-05-09T08:19:39.746Z,44.87
2023-05-09T08:22:07.858Z,44.92
2023-05-09T08:24:35.978Z,44.80
2023-05-09T08:27:04.560Z,45.11
2023-05-09T08:29:32.918Z,44.37
2023-05-09T08:32:01.080Z,44.86
2023-05-09T08:34:31.467Z,44.59
2023-05-09T08:36:59.767Z,44.50
2023-05-09T08:39:27.904Z,44.27
2023-05-09T08:42:00.481Z,43.65
2023-05-09T08:44:31.110Z,44.34
2023-05-09T08:47:03.958Z,44.51
2023-05-09T08:49:34.676Z,44.82
2023-05-09T08:52:03.740Z,44.81
2023-05-09T08:54:32.455Z,44.64
2023-05-09T08:57:02.745Z,44.97
2023-05-09T08:59:33.210Z,44.58
2023-05-09T09:02:01.631Z,43.87
2023-05-09T09:04:29.980Z,44.13
2023-05-09T09:07:00.591Z,43.62
2023-05-09T09:09:29.500Z,43.70
2023-05-09T09:11:59.065Z,43.58
2023-05-09T09:14:32.441Z,43.35
2023-05-09T09:17:01.938Z,43.34
2023-05-09T09:19:34.991Z,43.07
2023-05-09T09:22:06.442Z,43.06
2023-05-09T09:24:36.690Z,42.88
2023-05-09T09:27:07.598Z,42.92
2023-05-09T09:29:36.183Z,43.19
2023-05-09T09:32:06.822Z,43.17
2023-05-09T09:34:35.041Z,42.40
2023-05-09T09:37:07.249Z,42.22
2023-05-09T09:39:35.409Z,41.78
2023-05-09T09:42:12.712Z,41.23
2023-05-09T09:44:40.861Z,41.11
2023-05-09T09:47:12.206Z,41.12
2023-05-09T09:49:48.167Z,40.82
2023-05-09T09:52:26.916Z,40.53
2023-05-09T09:54:57.576Z,40.33
2023-05-09T09:57:36.195Z,40.64
2023-05-09T10:00:06.056Z,40.90
2023-05-09T10:02:34.966Z,40.11
2023-05-09T10:05:09.904Z,40.31
2023-05-09T10:07:39.391Z,40.74
2023-05-09T10:10:09.058Z,40.74
2023-05-09T10:12:38.754Z,40.55
2023-05-09T10:15:11.376Z,40.43
2023-05-09T10:17:39.886Z,40.26
2023-05-09T10:20:10.763Z,39.66
2023-05-09T10:22:41.931Z,39.18
2023-05-09T10:25:17.623Z,40.52
2023-05-09T10:27:48.329Z,40.18
2023-05-09T10:30:20.693Z,39.35
2023-05-09T10:32:54.153Z,39.49
2023-05-09T10:35:28.786Z,39.09
2023-05-09T10:37:58.827Z,38.98
2023-05-09T10:40:29.179Z,39.24
2023-05-09T10:42:57.269Z,39.13
2023-05-09T10:45:26.027Z,38.83
2023-05-09T10:47:56.976Z,39.93
2023-05-09T10:50:26.827Z,39.23
2023-05-09T10:53:17.843Z,38.31
2023-05-09T10:55:56.390Z,38.43
2023-05-09T10:58:28.372Z,38.13
2023-05-09T11:00:58.445Z,38.75
2023-05-09T11:03:28.897Z,38.17
2023-05-09T11:05:59.993Z,37.62
2023-05-09T11:08:31.201Z,38.03
2023-05-09T11:11:06.778Z,38.32
2023-05-09T11:13:38.995Z,38.05
2023-05-09T11:16:11.954Z,37.75
2023-05-09T11:18:54.534Z,37.69
2023-05-09T11:21:23.110Z,38.50
2023-05-09T11:23:55.142Z,38.05
2023-05-09T11:26:30.503Z,38.08
2023-05-09T11:29:02.716Z,37.89
2023-05-09T11:31:30.900Z,37.95
2023-05-09T11:34:06.283Z,37.86
2023-05-09T11:36:35.567Z,37.71
2023-05-09T11:39:08.854Z,37.95
2023-05-09T11:41:46.687Z,38.22
2023-05-09T11:44:20.848Z,38.18
2023-05-09T11:46:50.463Z,37.86
2023-05-09T11:49:19.543Z,37.84
2023-05-09T11:51:47.719Z,38.44
2023-05-09T11:54:17.336Z,37.96
2023-05-09T11:56:46.196Z,37.88
2023-05-09T11:59:15.842Z,36.87
2023-05-09T12:01:44.150Z,36.90
2023-05-09T12:04:12.515Z,36.63
2023-05-09T12:06:40.937Z,36.01
2023-05-09T12:09:11.299Z,35.33
2023-05-09T12:11:49.997Z,35.95
2023-05-09T12:14:28.740Z,35.92
2023-05-09T12:16:57.069Z,36.54
2023-05-09T12:19:26.762Z,36.85
2023-05-09T12:21:58.824Z,36.39
2023-05-09T12:24:27.901Z,36.51
2023-05-09T12:26:59.450Z,36.80
2023-05-09T12:29:30.680Z,36.68
2023-05-09T12:32:01.071Z,37.06
2023-05-09T12:34:30.317Z,36.65
2023-05-09T12:37:00.046Z,37.04
2023-05-09T12:39:28.273Z,36.66
2023-05-09T12:42:02.064Z,36.42
2023-05-09T12:44:30.597Z,36.44
2023-05-09T12:47:01.962Z,36.21
2023-05-09T12:49:32.022Z,36.37
2023-05-09T12:52:03.764Z,35.38
2023-05-09T12:54:32.883Z,36.02
2023-05-09T12:57:04.368Z,36.12
2023-05-09T12:59:33.275Z,35.21
2023-05-09T13:02:02.501Z,35.50
2023-05-09T13:04:30.681Z,35.01
2023-05-09T13:06:59.907Z,34.57
2023-05-09T13:09:28.495Z,35.16
2023-05-09T13:11:56.613Z,35.08
2023-05-09T13:14:27.873Z,34.93
2023-05-09T13:16:56.124Z,34.89
2023-05-09T13:19:24.236Z,34.13
2023-05-09T13:21:52.760Z,33.55
2023-05-09T13:24:20.938Z,33.35
2023-05-09T13:26:49.909Z,33.81
2023-05-09T13:29:18.015Z,33.38
2023-05-09T13:31:47.583Z,33.06
2023-05-09T13:34:15.747Z,32.44
2023-05-09T13:36:43.863Z,32.13
2023-05-09T13:39:11.971Z,31.20
2023-05-09T13:41:40.111Z,30.68
2023-05-09T13:44:08.224Z,30.55
2023-05-09T13:46:37.113Z,29.94
2023-05-09T13:49:06.740Z,29.45
2023-05-09T13:51:34.859Z,29.31
2023-05-09T13:54:04.592Z,29.63
2023-05-09T13:56:32.810Z,29.31
2023-05-09T13:59:00.974Z,28.86
2023-05-09T14:01:29.084Z,28.95
2023-05-09T14:03:57.241Z,28.25
2023-05-09T14:06:26.730Z,28.88
2023-05-09T14:08:54.888Z,28.97
2023-05-09T14:11:23.405Z,29.39
2023-05-09T14:13:52.546Z,29.52
2023-05-09T14:16:20.876Z,29.75
2023-05-09T14:18:49.417Z,29.27
2023-05-09T14:21:17.605Z,28.53
2023-05-09T14:23:47.101Z,28.93
2023-05-09T14:26:15.205Z,28.09
2023-05-09T14:28:44.245Z,27.71
2023-05-09T14:31:13.273Z,27.87
2023-05-09T14:33:41.380Z,28.00
2023-05-09T14:36:09.727Z,28.20
2023-05-09T14:38:38.057Z,27.79
2023-05-09T14:41:08.874Z,27.62
2023-05-09T14:43:36.988Z,27.57
2023-05-09T14:46:05.437Z,27.80
2023-05-09T14:48:34.672Z,28.25
2023-05-09T14:51:03.172Z,26.72
2023-05-09T14:53:31.479Z,26.09
2023-05-09T14:55:59.608Z,26.65
2023-05-09T14:58:30.833Z,27.61
2023-05-09T15:00:59.000Z,26.54
2023-05-09T15:03:27.562Z,26.59
2023-05-09T15:05:55.753Z,26.79
2023-05-09T15:08:23.856Z,27.35
2023-05-09T15:10:52.051Z,27.11
2023-05-09T15:13:20.764Z,26.44
2023-05-09T15:15:50.523Z,25.76
2023-05-09T15:18:20.043Z,25.98
2023-05-09T15:20:48.327Z,25.86
2023-05-09T15:23:17.050Z,25.98
2023-05-09T15:25:45.193Z,26.90
2023-05-09T15:28:13.529Z,27.57
2023-05-09T15:30:41.729Z,27.00
2023-05-09T15:33:11.397Z,26.30
2023-05-09T15:35:39.727Z,26.34
2023-05-09T15:38:07.944Z,26.63
2023-05-09T15:40:36.111Z,26.24
2023-05-09T15:43:07.995Z,26.92
2023-05-09T15:45:37.802Z,27.08
2023-05-09T15:48:06.872Z,27.27
2023-05-09T15:50:36.422Z,27.50
2023-05-09T15:53:04.633Z,27.19
2023-05-09T15:55:33.464Z,27.30
2023-05-09T15:58:01.617Z,27.64
2023-05-09T16:00:30.717Z,27.75
2023-05-09T16:02:59.816Z,27.98
2023-05-09T16:05:28.067Z,28.70
2023-05-09T16:07:57.526Z,28.64
2023-05-09T16:10:26.117Z,28.78
2023-05-09T16:12:54.219Z,28.85
2023-05-09T16:15:22.613Z,29.12
2023-05-09T16:17:50.927Z,28.88
2023-05-09T16:20:19.206Z,28.36
2023-05-09T16:22:47.421Z,28.93
2023-05-09T16:25:18.121Z,29.47
2023-05-09T16:27:46.309Z,29.30
2023-05-09T16:30:19.028Z,29.39
2023-05-09T16:33:04.012Z,29.82
2023-05-09T16:35:32.325Z,29.24
2023-05-09T16:38:00.505Z,29.67
2023-05-09T16:40:30.087Z,29.76
2023-05-09T16:42:58.197Z,30.21
2023-05-09T16:45:26.611Z,30.37
2023-05-09T16:47:55.664Z,30.45
2023-05-09T16:50:24.087Z,30.79
2023-05-09T16:52:52.578Z,31.20
2023-05-09T16:55:20.656Z,31.42
2023-05-09T16:57:50.179Z,31.95
2023-05-09T17:00:19.969Z,31.86
2023-05-09T17:02:48.200Z,32.46
2023-05-09T17:05:16.343Z,32.63
2023-05-09T17:07:44.528Z,33.03
2023-05-09T17:10:13.088Z,33.24
2023-05-09T17:12:41.902Z,33.55
2023-05-09T17:15:13.708Z,33.65
2023-05-09T17:17:42.043Z,33.76
2023-05-09T17:20:11.714Z,34.06
2023-05-09T17:22:40.040Z,34.40
2023-05-09T17:25:09.257Z,34.42
2023-05-09T17:27:37.355Z,35.00
2023-05-09T17:30:06.817Z,35.20
2023-05-09T17:32:36.366Z,34.73
2023-05-09T17:35:05.047Z,34.86
2023-05-09T17:37:33.146Z,35.40
2023-05-09T17:40:01.611Z,35.83
2023-05-09T17:42:29.762Z,35.86
2023-05-09T17:44:58.002Z,35.80
2023-05-09T17:47:26.233Z,36.22
2023-05-09T17:49:55.750Z,36.75
2023-05-09T17:52:23.839Z,36.71
2023-05-09T17:54:52.074Z,37.19
2023-05-09T17:57:20.275Z,37.49
2023-05-09T17:59:48.452Z,38.03
2023-05-09T18:02:16.711Z,38.09
2023-05-09T18:04:47.610Z,38.54
2023-05-09T18:07:17.264Z,38.37
2023-05-09T18:09:45.435Z,38.56
2023-05-09T18:12:13.641Z,39.12
2023-05-09T18:14:41.881Z,39.25
2023-05-09T18:17:10.069Z,39.06
2023-05-09T18:19:39.907Z,39.41
2023-05-09T18:22:08.041Z,39.78
2023-05-09T18:24:40.769Z,39.96
2023-05-09T18:27:09.032Z,40.02
2023-05-09T18:29:37.128Z,40.28
2023-05-09T18:32:06.828Z,40.60
2023-05-09T18:34:34.993Z,40.45
2023-05-09T18:37:03.165Z,40.69
2023-05-09T18:39:31.311Z,41.29
2023-05-09T18:42:00.816Z,41.41
2023-05-09T18:44:28.992Z,41.44
2023-05-09T18:46:57.887Z,41.79
2023-05-09T18:49:27.086Z,42.24
2023-05-09T18:51:56.405Z,42.61
2023-05-09T18:54:24.649Z,43.00
2023-05-09T18:56:53.148Z,43.24
2023-05-09T18:59:23.471Z,43.36
2023-05-09T19:01:51.630Z,43.09
2023-05-09T19:04:19.908Z,43.60
2023-05-09T19:06:48.446Z,43.64
2023-05-09T19:09:16.671Z,43.88
2023-05-09T19:11:45.086Z,43.92
2023-05-09T19:14:13.277Z,44.08
2023-05-09T19:16:42.772Z,44.74
2023-05-09T19:19:10.955Z,44.97
2023-05-09T19:21:39.103Z,44.98
2023-05-09T19:24:08.010Z,45.28
2023-05-09T19:26:36.153Z,45.37
2023-05-09T19:29:07.967Z,45.86
2023-05-09T19:31:37.698Z,46.42
2023-05-09T19:34:07.515Z,46.61
2023-05-09T19:36:35.766Z,47.30
2023-05-09T19:39:05.206Z,47.02
2023-05-09T19:41:33.373Z,47.23
2023-05-09T19:44:01.713Z,47.28
2023-05-09T19:46:29.896Z,47.86
2023-05-09T19:48:58.111Z,47.90
2023-05-09T19:51:27.636Z,48.15
2023-05-09T19:53:56.095Z,48.36
2023-05-09T19:56:24.380Z,48.26
2023-05-09T19:58:52.535Z,47.93
2023-05-09T20:01:20.774Z,48.10
2023-05-09T20:03:50.584Z,48.66
2023-05-09T20:06:19.825Z,48.69
2023-05-09T20:08:51.557Z,49.19
2023-05-09T20:11:19.713Z,49.37
2023-05-09T20:13:48.063Z,49.28
2023-05-09T20:16:16.292Z,49.41
2023-05-09T20:18:44.433Z,49.62
2023-05-09T20:21:12.749Z,49.56
2023-05-09T20:23:41.023Z,49.28
2023-05-09T20:26:10.624Z,49.25
2023-05-09T20:28:38.716Z,48.97
2023-05-09T20:31:06.805Z,49.27
2023-05-09T20:33:34.937Z,49.21
2023-05-09T20:36:03.066Z,49.71
2023-05-09T20:38:31.187Z,49.69
2023-05-09T20:40:59.268Z,49.17
2023-05-09T20:43:28.828Z,49.25
2023-05-09T20:45:57.125Z,49.58
2023-05-09T20:48:25.900Z,49.92
2023-05-09T20:50:54.049Z,49.76
2023-05-09T20:53:26.270Z,49.62
2023-05-09T20:55:54.889Z,49.80
2023-05-09T20:58:22.990Z,49.84
2023-05-09T21:00:52.478Z,49.68
2023-05-09T21:03:20.780Z,49.56
2023-05-09T21:05:48.935Z,49.62
2023-05-09T21:08:17.120Z,49.95
2023-05-09T21:10:45.240Z,50.26
2023-05-09T21:13:13.384Z,50.48
2023-05-09T21:15:41.553Z,49.98
2023-05-09T21:18:11.051Z,50.33
2023-05-09T21:20:39.981Z,50.73
2023-05-09T21:23:08.348Z,50.38
2023-05-09T21:25:36.485Z,50.41
2023-05-09T21:28:04.648Z,50.60
2023-05-09T21:30:32.730Z,50.49
2023-05-09T21:33:00.841Z,50.64
2023-05-09T21:35:30.679Z,50.67
2023-05-09T21:37:58.772Z,50.74
2023-05-09T21:40:26.930Z,50.77
2023-05-09T21:42:55.038Z,51.29
2023-05-09T21:45:23.337Z,51.20
2023-05-09T21:47:51.557Z,51.97
2023-05-09T21:50:19.963Z,52.50
2023-05-09T21:52:49.520Z,52.53
2023-05-09T21:55:17.724Z,52.25
2023-05-09T21:57:45.810Z,52.21
2023-05-09T22:00:16.755Z,52.43
2023-05-09T22:02:45.635Z,52.49
2023-05-09T22:05:14.484Z,52.66
2023-05-09T22:07:42.585Z,52.89
2023-05-09T22:10:12.410Z,52.95
2023-05-09T22:12:40.590Z,52.92
2023-05-09T22:15:09.723Z,53.34
2023-05-09T22:17:38.068Z,53.63
2023-05-09T22:20:07.953Z,53.02
2023-05-09T22:22:36.120Z,53.08
2023-05-09T22:25:05.462Z,53.43
2023-05-09T22:27:34.918Z,53.56
2023-05-09T22:30:03.507Z,53.82
2023-05-09T22:32:31.687Z,54.18
2023-05-09T22:34:59.839Z,54.57
2023-05-09T22:37:28.032Z,54.57
2023-05-09T22:39:56.240Z,54.13
2023-05-09T22:42:24.387Z,54.45
2023-05-09T22:44:53.975Z,54.76
2023-05-09T22:47:22.156Z,55.14
2023-05-09T22:49:51.298Z,54.99
2023-05-09T22:52:20.087Z,54.79
2023-05-09T22:54:48.307Z,54.69
2023-05-09T22:57:17.985Z,54.83
2023-05-09T22:59:46.612Z,54.55
2023-05-09T23:02:16.248Z,55.26
2023-05-09T23:04:44.336Z,55.38
2023-05-09T23:07:12.997Z,55.54
2023-05-09T23:09:41.290Z,55.45
2023-05-09T23:12:10.693Z,55.97
2023-05-09T23:14:39.191Z,55.91
2023-05-09T23:17:07.329Z,56.37
2023-05-09T23:19:37.233Z,55.98
2023-05-09T23:22:05.405Z,56.21
2023-05-09T23:24:33.545Z,56.22
2023-05-09T23:27:03.487Z,56.31
2023-05-09T23:29:33.058Z,56.40
2023-05-09T23:32:01.159Z,56.83
2023-05-09T23:34:29.429Z,56.77
2023-05-09T23:36:58.884Z,56.42
2023-05-09T23:39:26.986Z,56.93
2023-05-09T23:41:55.141Z,57.37
2023-05-09T23:44:23.262Z,57.69
2023-05-09T23:46:51.582Z,57.74
2023-05-09T23:49:19.688Z,58.07
2023-05-09T23:51:47.803Z,57.81
2023-05-09T23:54:17.480Z,58.53
2023-05-09T23:56:47.631Z,58.66
2023-05-09T23:59:15.754Z,58.12
